Liquid Rehab — 6YRR4 — position and weather

sailwx.info

Track history (hours):
 
Tides and Currents Weather Stations Pressure Air Temp Water Temp Dewpoint Dewpoint Depression Visibility Wind Speed Wind Dir Waves Ship Positions

Liquid Rehab

Last reported at 2018-Apr-20 04:58 UTC. Time now 2018-Apr-20 05:12 UTC.
Position N 26°06' W 080°07'.

Length 40 m; draft 2 m.

Type: Pleasure craft. MMSI: 339318000.

Date/timePositionNaut miles runAvg speedWind from/ knotsBaromVisibWave heightAir tempDewpointWater temp
2018-Apr-20 04:58N 26°06' W 080°07'0 0.0
2018-Apr-20 04:30N 26°06' W 080°07'0 0.0
2018-Apr-20 03:58N 26°06' W 080°07'0 0.0
2018-Apr-20 03:30N 26°06' W 080°07'0 0.0
2018-Apr-20 03:00N 26°06' W 080°07'0 0.0
2018-Apr-20 02:27N 26°06' W 080°07'0 0.0
2018-Apr-20 01:49N 26°06' W 080°07'0 0.0
2018-Apr-20 01:22N 26°06' W 080°07'0 0.0
2018-Apr-20 01:00N 26°06' W 080°07'0 0.0
2018-Apr-20 00:28N 26°06' W 080°07'0 0.0
2018-Apr-20 00:00N 26°06' W 080°07'0 0.0
2018-Apr-19 23:29N 26°06' W 080°07'0 0.0
2018-Apr-19 18:39N 26°06' W 080°07'0 0.0
2018-Apr-19 18:30N 26°06' W 080°07'0 0.0
2018-Apr-19 17:39N 26°06' W 080°07'0 0.0
2018-Apr-19 17:12N 26°06' W 080°07'0 0.0
2018-Apr-19 16:54N 26°06' W 080°07'0 0.0
2018-Apr-19 16:30N 26°06' W 080°07'0 0.0
2018-Apr-19 15:56N 26°06' W 080°07'0 0.0
2018-Apr-19 15:24N 26°06' W 080°07'0 0.0
2018-Apr-19 15:00N 26°06' W 080°07'0 0.0
2018-Apr-19 14:27N 26°06' W 080°07'0 0.0
2018-Apr-19 13:58N 26°06' W 080°07'0 0.0
2018-Apr-19 13:29N 26°06' W 080°07'0 0.0
2018-Apr-19 05:05N 26°06' W 080°07'0 0.0
2018-Apr-19 04:35N 26°06' W 080°07'0 0.0
2018-Apr-19 04:17N 26°06' W 080°07'0 0.0
2018-Apr-19 03:56N 26°06' W 080°07'0 0.0
2018-Apr-19 03:14N 26°06' W 080°07'0 0.0
2018-Apr-19 02:57N 26°06' W 080°07'0 0.0
2018-Apr-19 02:24N 26°06' W 080°07'0 0.0
2018-Apr-19 01:59N 26°06' W 080°07'0 0.0
2018-Apr-19 01:29N 26°06' W 080°07'0 0.0
2018-Apr-19 00:02N 26°06' W 080°07'0 0.0
2018-Apr-18 23:52N 26°06' W 080°07'0 0.0
2018-Apr-18 23:30N 26°06' W 080°07'0 0.0
2018-Apr-18 22:53N 26°06' W 080°07'0 0.0
2018-Apr-18 22:29N 26°06' W 080°07'0 0.0
2018-Apr-18 22:00N 26°06' W 080°07'0 0.0
2018-Apr-18 21:30N 26°06' W 080°07'0 0.0
2018-Apr-18 21:00N 26°06' W 080°07'0 0.0
2018-Apr-18 20:30N 26°06' W 080°07'0 0.0
2018-Apr-18 20:00N 26°06' W 080°07'0 0.0
2018-Apr-18 19:30N 26°06' W 080°07'0 0.0
2018-Apr-18 18:59N 26°06' W 080°07'0 0.0
2018-Apr-18 18:30N 26°06' W 080°07'0 0.0
2018-Apr-18 17:58N 26°06' W 080°07'0 0.0
2018-Apr-18 17:30N 26°06' W 080°07'0 0.0
2018-Apr-18 17:00N 26°06' W 080°07'0 0.0
2018-Apr-18 16:30N 26°06' W 080°07'0 0.0
2018-Apr-18 16:00N 26°06' W 080°07'0 0.0
2018-Apr-18 15:30N 26°06' W 080°07'0 0.0
2018-Apr-18 14:57N 26°06' W 080°07'1 1.2
2018-Apr-18 14:31N 26°06' W 080°07'713.0
2018-Apr-18 14:00N 26°05' W 079°60'815.2
2018-Apr-18 13:29N 26°02' W 079°51'  
2018-Apr-11 18:50N 26°15' W 076°59'618.0
2018-Apr-11 18:30N 26°21' W 076°57'917.4
2018-Apr-11 18:01N 26°29' W 076°55'815.3
2018-Apr-11 17:30N 26°36' W 076°57'3 6.5
2018-Apr-11 17:00N 26°36' W 077°01'1 2.5
2018-Apr-11 16:30N 26°36' W 077°02'4 7.1
2018-Apr-11 16:00N 26°33' W 077°05'0 0.0
2018-Apr-11 15:30N 26°33' W 077°05'0 0.8
2018-Apr-11 15:01N 26°34' W 077°04'1 1.9
2018-Apr-11 14:30N 26°33' W 077°03'0 0.0
2018-Apr-11 14:00N 26°33' W 077°03'0 0.0
2018-Apr-11 13:30N 26°33' W 077°03'0 0.1
2018-Apr-11 13:00N 26°33' W 077°03'0 0.1
2018-Apr-11 12:30N 26°33' W 077°03'0 0.0
2018-Apr-11 12:00N 26°33' W 077°03'0 0.0
2018-Apr-11 11:30N 26°33' W 077°03'0 0.0
2018-Apr-11 11:00N 26°33' W 077°03'0 0.0
2018-Apr-11 10:30N 26°33' W 077°03'0 0.0
2018-Apr-11 10:00N 26°33' W 077°03'0 0.0
2018-Apr-11 09:30N 26°33' W 077°03'0 0.0
2018-Apr-11 09:00N 26°33' W 077°03'0 0.0
2018-Apr-11 08:30N 26°33' W 077°03'0 0.0
2018-Apr-11 08:00N 26°33' W 077°03'0 0.0
2018-Apr-11 07:30N 26°33' W 077°03'0 0.0
2018-Apr-11 07:00N 26°33' W 077°03'0 0.0
2018-Apr-11 06:30N 26°33' W 077°03'0 0.0
2018-Apr-11 06:00N 26°33' W 077°03'0 0.0
2018-Apr-11 05:18N 26°33' W 077°03'0 0.1
2018-Apr-11 05:00N 26°33' W 077°03'0 0.0
2018-Apr-11 04:30N 26°33' W 077°03'0 0.0
2018-Apr-11 04:00N 26°33' W 077°03'0 0.0
2018-Apr-11 03:30N 26°33' W 077°03'0 0.0
2018-Apr-11 03:00N 26°33' W 077°03'0 0.0
2018-Apr-11 02:30N 26°33' W 077°03'0 0.0
2018-Apr-11 02:00N 26°33' W 077°03'1 1.9
2018-Apr-11 01:31N 26°34' W 077°04'1 1.7
2018-Apr-11 01:00N 26°33' W 077°03'0 0.1
2018-Apr-11 00:28N 26°33' W 077°03'0 0.0
2018-Apr-10 23:58N 26°33' W 077°03'0 0.0
2018-Apr-10 23:28N 26°33' W 077°03'0 0.0
2018-Apr-10 22:58N 26°33' W 077°03'0 0.0
2018-Apr-10 22:28N 26°33' W 077°03'0 0.0
2018-Apr-10 22:00N 26°33' W 077°03'0 0.0
2018-Apr-10 21:31N 26°33' W 077°03'3 5.3
2018-Apr-10 21:01N 26°34' W 077°00'3 5.3
2018-Apr-10 20:30N 26°33' W 077°03'0 0.0
2018-Apr-10 19:59N 26°33' W 077°03'0 0.0
2018-Apr-10 19:31N 26°33' W 077°03'0 0.0
2018-Apr-10 19:00N 26°33' W 077°03'0 0.0
2018-Apr-10 18:31N 26°33' W 077°03'0 0.0
2018-Apr-10 18:00N 26°33' W 077°03'0 0.0
2018-Apr-10 17:30N 26°33' W 077°03'0 0.0
2018-Apr-10 17:00N 26°33' W 077°03'0 0.0
2018-Apr-10 16:31N 26°33' W 077°03'0 0.0
2018-Apr-10 16:00N 26°33' W 077°03'0 0.0
2018-Apr-10 15:31N 26°33' W 077°03'0 0.0
2018-Apr-10 15:01N 26°33' W 077°03'0 0.0
2018-Apr-10 14:30N 26°33' W 077°03'0 0.0
2018-Apr-10 14:00N 26°33' W 077°03'0 0.0
2018-Apr-10 13:31N 26°33' W 077°03'0 0.0
2018-Apr-10 13:00N 26°33' W 077°03'0 0.0
2018-Apr-10 12:30N 26°33' W 077°03'0 0.0
2018-Apr-10 12:00N 26°33' W 077°03'0 0.0
2018-Apr-10 11:30N 26°33' W 077°03'0 0.0
2018-Apr-10 11:00N 26°33' W 077°03'0 0.0
2018-Apr-10 10:30N 26°33' W 077°03'0 0.0
2018-Apr-10 10:00N 26°33' W 077°03'0 0.0
2018-Apr-10 09:30N 26°33' W 077°03'0 0.0
2018-Apr-10 09:00N 26°33' W 077°03'0 0.0
2018-Apr-10 08:30N 26°33' W 077°03'0 0.0
2018-Apr-10 08:00N 26°33' W 077°03'0 0.0
2018-Apr-10 07:31N 26°33' W 077°03'0 0.0
2018-Apr-10 07:00N 26°33' W 077°03'0 0.0
2018-Apr-10 06:31N 26°33' W 077°03'0 0.0
2018-Apr-10 06:00N 26°33' W 077°03'0 0.0
2018-Apr-10 05:30N 26°33' W 077°03'0 0.0
2018-Apr-10 05:00N 26°33' W 077°03'  
Track history (hours):
 
Tides and Currents Weather Stations Pressure Air Temp Water Temp Dewpoint Dewpoint Depression Visibility Wind Speed Wind Dir Waves Ship Positions

Liquid Rehab

Last reported at 2018-Apr-20 04:58 UTC. Time now 2018-Apr-20 05:12 UTC.
Position N 26°06' W 080°07'.

Length 40 m; draft 2 m.

Type: Pleasure craft. MMSI: 339318000.

Date/timePositionNaut miles runAvg speedWind from/ knotsBaromVisibWave heightAir tempDewpointWater temp
2018-Apr-20 04:58N 26°06' W 080°07'0 0.0
2018-Apr-20 04:30N 26°06' W 080°07'0 0.0
2018-Apr-20 03:58N 26°06' W 080°07'0 0.0
2018-Apr-20 03:30N 26°06' W 080°07'0 0.0
2018-Apr-20 03:00N 26°06' W 080°07'0 0.0
2018-Apr-20 02:27N 26°06' W 080°07'0 0.0
2018-Apr-20 01:49N 26°06' W 080°07'0 0.0
2018-Apr-20 01:22N 26°06' W 080°07'0 0.0
2018-Apr-20 01:00N 26°06' W 080°07'0 0.0
2018-Apr-20 00:28N 26°06' W 080°07'0 0.0
2018-Apr-20 00:00N 26°06' W 080°07'0 0.0
2018-Apr-19 23:29N 26°06' W 080°07'0 0.0
2018-Apr-19 18:39N 26°06' W 080°07'0 0.0
2018-Apr-19 18:30N 26°06' W 080°07'0 0.0
2018-Apr-19 17:39N 26°06' W 080°07'0 0.0
2018-Apr-19 17:12N 26°06' W 080°07'0 0.0
2018-Apr-19 16:54N 26°06' W 080°07'0 0.0
2018-Apr-19 16:30N 26°06' W 080°07'0 0.0
2018-Apr-19 15:56N 26°06' W 080°07'0 0.0
2018-Apr-19 15:24N 26°06' W 080°07'0 0.0
2018-Apr-19 15:00N 26°06' W 080°07'0 0.0
2018-Apr-19 14:27N 26°06' W 080°07'0 0.0
2018-Apr-19 13:58N 26°06' W 080°07'0 0.0
2018-Apr-19 13:29N 26°06' W 080°07'0 0.0
2018-Apr-19 05:05N 26°06' W 080°07'0 0.0
2018-Apr-19 04:35N 26°06' W 080°07'0 0.0
2018-Apr-19 04:17N 26°06' W 080°07'0 0.0
2018-Apr-19 03:56N 26°06' W 080°07'0 0.0
2018-Apr-19 03:14N 26°06' W 080°07'0 0.0
2018-Apr-19 02:57N 26°06' W 080°07'0 0.0
2018-Apr-19 02:24N 26°06' W 080°07'0 0.0
2018-Apr-19 01:59N 26°06' W 080°07'0 0.0
2018-Apr-19 01:29N 26°06' W 080°07'0 0.0
2018-Apr-19 00:02N 26°06' W 080°07'0 0.0
2018-Apr-18 23:52N 26°06' W 080°07'0 0.0
2018-Apr-18 23:30N 26°06' W 080°07'0 0.0
2018-Apr-18 22:53N 26°06' W 080°07'0 0.0
2018-Apr-18 22:29N 26°06' W 080°07'0 0.0
2018-Apr-18 22:00N 26°06' W 080°07'0 0.0
2018-Apr-18 21:30N 26°06' W 080°07'0 0.0
2018-Apr-18 21:00N 26°06' W 080°07'0 0.0
2018-Apr-18 20:30N 26°06' W 080°07'0 0.0
2018-Apr-18 20:00N 26°06' W 080°07'0 0.0
2018-Apr-18 19:30N 26°06' W 080°07'0 0.0
2018-Apr-18 18:59N 26°06' W 080°07'0 0.0
2018-Apr-18 18:30N 26°06' W 080°07'0 0.0
2018-Apr-18 17:58N 26°06' W 080°07'0 0.0
2018-Apr-18 17:30N 26°06' W 080°07'0 0.0
2018-Apr-18 17:00N 26°06' W 080°07'0 0.0
2018-Apr-18 16:30N 26°06' W 080°07'0 0.0
2018-Apr-18 16:00N 26°06' W 080°07'0 0.0
2018-Apr-18 15:30N 26°06' W 080°07'0 0.0
2018-Apr-18 14:57N 26°06' W 080°07'1 1.2
2018-Apr-18 14:31N 26°06' W 080°07'713.0
2018-Apr-18 14:00N 26°05' W 079°60'815.2
2018-Apr-18 13:29N 26°02' W 079°51'  
2018-Apr-11 18:50N 26°15' W 076°59'618.0
2018-Apr-11 18:30N 26°21' W 076°57'917.4
2018-Apr-11 18:01N 26°29' W 076°55'815.3
2018-Apr-11 17:30N 26°36' W 076°57'3 6.5
2018-Apr-11 17:00N 26°36' W 077°01'1 2.5
2018-Apr-11 16:30N 26°36' W 077°02'4 7.1
2018-Apr-11 16:00N 26°33' W 077°05'0 0.0
2018-Apr-11 15:30N 26°33' W 077°05'0 0.8
2018-Apr-11 15:01N 26°34' W 077°04'1 1.9
2018-Apr-11 14:30N 26°33' W 077°03'0 0.0
2018-Apr-11 14:00N 26°33' W 077°03'0 0.0
2018-Apr-11 13:30N 26°33' W 077°03'0 0.1
2018-Apr-11 13:00N 26°33' W 077°03'0 0.1
2018-Apr-11 12:30N 26°33' W 077°03'0 0.0
2018-Apr-11 12:00N 26°33' W 077°03'0 0.0
2018-Apr-11 11:30N 26°33' W 077°03'0 0.0
2018-Apr-11 11:00N 26°33' W 077°03'0 0.0
2018-Apr-11 10:30N 26°33' W 077°03'0 0.0
2018-Apr-11 10:00N 26°33' W 077°03'0 0.0
2018-Apr-11 09:30N 26°33' W 077°03'0 0.0
2018-Apr-11 09:00N 26°33' W 077°03'0 0.0
2018-Apr-11 08:30N 26°33' W 077°03'0 0.0
2018-Apr-11 08:00N 26°33' W 077°03'0 0.0
2018-Apr-11 07:30N 26°33' W 077°03'0 0.0
2018-Apr-11 07:00N 26°33' W 077°03'0 0.0
2018-Apr-11 06:30N 26°33' W 077°03'0 0.0
2018-Apr-11 06:00N 26°33' W 077°03'0 0.0
2018-Apr-11 05:18N 26°33' W 077°03'0 0.1
2018-Apr-11 05:00N 26°33' W 077°03'0 0.0
2018-Apr-11 04:30N 26°33' W 077°03'0 0.0
2018-Apr-11 04:00N 26°33' W 077°03'0 0.0
2018-Apr-11 03:30N 26°33' W 077°03'0 0.0
2018-Apr-11 03:00N 26°33' W 077°03'0 0.0
2018-Apr-11 02:30N 26°33' W 077°03'0 0.0
2018-Apr-11 02:00N 26°33' W 077°03'1 1.9
2018-Apr-11 01:31N 26°34' W 077°04'1 1.7
2018-Apr-11 01:00N 26°33' W 077°03'0 0.1
2018-Apr-11 00:28N 26°33' W 077°03'0 0.0
2018-Apr-10 23:58N 26°33' W 077°03'0 0.0
2018-Apr-10 23:28N 26°33' W 077°03'0 0.0
2018-Apr-10 22:58N 26°33' W 077°03'0 0.0
2018-Apr-10 22:28N 26°33' W 077°03'0 0.0
2018-Apr-10 22:00N 26°33' W 077°03'0 0.0
2018-Apr-10 21:31N 26°33' W 077°03'3 5.3
2018-Apr-10 21:01N 26°34' W 077°00'3 5.3
2018-Apr-10 20:30N 26°33' W 077°03'0 0.0
2018-Apr-10 19:59N 26°33' W 077°03'0 0.0
2018-Apr-10 19:31N 26°33' W 077°03'0 0.0
2018-Apr-10 19:00N 26°33' W 077°03'0 0.0
2018-Apr-10 18:31N 26°33' W 077°03'0 0.0
2018-Apr-10 18:00N 26°33' W 077°03'0 0.0
2018-Apr-10 17:30N 26°33' W 077°03'0 0.0
2018-Apr-10 17:00N 26°33' W 077°03'0 0.0
2018-Apr-10 16:31N 26°33' W 077°03'0 0.0
2018-Apr-10 16:00N 26°33' W 077°03'0 0.0
2018-Apr-10 15:31N 26°33' W 077°03'0 0.0
2018-Apr-10 15:01N 26°33' W 077°03'0 0.0
2018-Apr-10 14:30N 26°33' W 077°03'0 0.0
2018-Apr-10 14:00N 26°33' W 077°03'0 0.0
2018-Apr-10 13:31N 26°33' W 077°03'0 0.0
2018-Apr-10 13:00N 26°33' W 077°03'0 0.0
2018-Apr-10 12:30N 26°33' W 077°03'0 0.0
2018-Apr-10 12:00N 26°33' W 077°03'0 0.0
2018-Apr-10 11:30N 26°33' W 077°03'0 0.0
2018-Apr-10 11:00N 26°33' W 077°03'0 0.0
2018-Apr-10 10:30N 26°33' W 077°03'0 0.0
2018-Apr-10 10:00N 26°33' W 077°03'0 0.0
2018-Apr-10 09:30N 26°33' W 077°03'0 0.0
2018-Apr-10 09:00N 26°33' W 077°03'0 0.0
2018-Apr-10 08:30N 26°33' W 077°03'0 0.0
2018-Apr-10 08:00N 26°33' W 077°03'0 0.0
2018-Apr-10 07:31N 26°33' W 077°03'0 0.0
2018-Apr-10 07:00N 26°33' W 077°03'0 0.0
2018-Apr-10 06:31N 26°33' W 077°03'0 0.0
2018-Apr-10 06:00N 26°33' W 077°03'0 0.0
2018-Apr-10 05:30N 26°33' W 077°03'0 0.0
2018-Apr-10 05:00N 26°33' W 077°03'  

Dump ship's entire track history